Time;durP1;ratioP1;P1;durP2;ratioP2;P2;SDS_P1;SDS_P2;PMS_P1;PMS_P2;Temp;Humidity;BMP_temperature;BMP_pressure;BME280_temperature;BME280_humidity;BME280_pressure;Samples;Min_cycle;Max_cycle;Signal;HPM_P1;HPM_P2
2022/06/06 00:02:21;;;;;;;;;;;16.70;99.90;;;;;;5055379;28;20370;-68
2022/06/06 00:04:46;;;;;;;;;;;16.70;99.90;;;;;;5035342;28;19970;-68
2022/06/06 00:07:12;;;;;;;;;;;16.60;99.90;;;;;;5054424;28;19959;-68
2022/06/06 00:09:37;;;;;;;;;;;16.60;99.90;;;;;;5053834;28;19944;-69
2022/06/06 00:12:04;;;;;;;;;;;16.60;99.90;;;;;;5054755;28;19966;-68
2022/06/06 00:14:31;;;;;;;;;;;16.60;99.90;;;;;;5051240;28;19979;-68
2022/06/06 00:16:57;;;;;;;;;;;16.60;99.90;;;;;;5053337;28;19913;-68
2022/06/06 00:19:22;;;;;;;;;;;16.50;99.90;;;;;;5051881;28;19992;-70
2022/06/06 00:21:48;;;;;;;;;;;16.50;99.90;;;;;;5058387;28;20008;-66
2022/06/06 00:24:14;;;;;;;;;;;16.50;99.90;;;;;;5052561;28;20375;-68
2022/06/06 00:26:39;;;;;;;;;;;16.50;99.90;;;;;;5055113;28;20301;-67
2022/06/06 00:29:05;;;;;;;;;;;16.40;99.90;;;;;;5050806;28;19913;-68
2022/06/06 00:37:01;;;;;;;;;;;16.40;99.90;;;;;;5052461;28;20326;-68
2022/06/06 00:39:27;;;;;;;;;;;16.40;99.90;;;;;;5056330;28;20422;-70
2022/06/06 00:41:53;;;;;;;;;;;16.30;99.90;;;;;;5057299;28;20342;-70
2022/06/06 00:44:21;;;;;;;;;;;16.30;99.90;;;;;;5054228;28;20011;-69
2022/06/06 00:46:52;;;;;;;;;;;16.30;99.90;;;;;;5050496;28;19945;-70
2022/06/06 00:49:28;;;;;;;;;;;16.30;99.90;;;;;;5053470;28;19956;-70
2022/06/06 00:51:54;;;;;;;;;;;16.30;99.90;;;;;;5055022;28;19944;-70
2022/06/06 00:54:20;;;;;;;;;;;16.30;99.90;;;;;;5053248;28;19971;-70
2022/06/06 00:56:49;;;;;;;;;;;16.30;99.90;;;;;;5057542;28;19970;-70
2022/06/06 00:59:17;;;;;;;;;;;16.30;99.90;;;;;;5053160;28;19944;-68
2022/06/06 01:01:43;;;;;;;;;;;16.30;99.90;;;;;;5051263;28;19921;-70
2022/06/06 01:04:10;;;;;;;;;;;16.20;99.90;;;;;;5053988;28;20027;-69
2022/06/06 01:06:38;;;;;;;;;;;16.20;99.90;;;;;;5053258;28;19936;-70
2022/06/06 01:09:03;;;;;;;;;;;16.20;99.90;;;;;;5051942;28;19912;-69
2022/06/06 01:11:33;;;;;;;;;;;16.20;99.90;;;;;;5053821;28;20465;-68
2022/06/06 01:13:58;;;;;;;;;;;16.30;99.90;;;;;;5052375;28;19923;-68
2022/06/06 01:16:44;;;;;;;;;;;16.20;99.90;;;;;;5053355;28;19913;-68
2022/06/06 01:19:26;;;;;;;;;;;16.30;99.90;;;;;;5049800;28;19955;-68
2022/06/06 01:22:17;;;;;;;;;;;16.30;99.90;;;;;;5056413;28;20015;-69
2022/06/06 01:24:49;;;;;;;;;;;16.30;99.90;;;;;;5052905;28;20303;-69
2022/06/06 01:27:17;;;;;;;;;;;16.30;99.90;;;;;;5052109;28;19913;-69
2022/06/06 01:29:45;;;;;;;;;;;16.30;99.90;;;;;;5055360;28;19909;-70
2022/06/06 01:32:12;;;;;;;;;;;16.20;99.90;;;;;;5052209;28;19913;-70
2022/06/06 01:34:40;;;;;;;;;;;16.20;99.90;;;;;;5053575;28;19928;-71
2022/06/06 01:37:24;;;;;;;;;;;16.20;99.90;;;;;;5050708;28;19917;-68
2022/06/06 01:39:50;;;;;;;;;;;16.20;99.90;;;;;;5057619;28;19973;-71
2022/06/06 01:42:20;;;;;;;;;;;16.20;99.90;;;;;;5053193;28;19908;-70
2022/06/06 01:44:47;;;;;;;;;;;16.20;99.90;;;;;;5053577;28;19908;-70
2022/06/06 01:47:15;;;;;;;;;;;16.20;99.90;;;;;;5049754;28;19920;-71
2022/06/06 01:49:41;;;;;;;;;;;16.20;99.90;;;;;;5052455;28;19913;-71
2022/06/06 01:52:08;;;;;;;;;;;16.10;99.90;;;;;;5046877;28;19916;-70
2022/06/06 01:54:33;;;;;;;;;;;16.10;99.90;;;;;;5051796;28;20003;-70
2022/06/06 01:57:00;;;;;;;;;;;16.10;99.90;;;;;;5056022;28;20003;-68
2022/06/06 01:59:26;;;;;;;;;;;16.10;99.90;;;;;;5052896;28;19925;-68
2022/06/06 02:01:52;;;;;;;;;;;16.10;99.90;;;;;;5055500;28;20354;-69
2022/06/06 02:04:18;;;;;;;;;;;16.10;99.90;;;;;;5051412;28;19917;-70
2022/06/06 02:06:44;;;;;;;;;;;16.10;99.90;;;;;;5053424;28;19917;-69
2022/06/06 02:09:09;;;;;;;;;;;16.10;99.90;;;;;;5051358;28;19916;-68
2022/06/06 02:11:35;;;;;;;;;;;16.10;99.90;;;;;;5054771;28;19954;-68
2022/06/06 02:14:00;;;;;;;;;;;16.00;99.90;;;;;;5051074;28;19943;-70
2022/06/06 02:16:26;;;;;;;;;;;16.00;99.90;;;;;;5051144;28;20395;-69
2022/06/06 02:18:51;;;;;;;;;;;16.00;99.90;;;;;;5049785;28;19913;-68
2022/06/06 02:21:17;;;;;;;;;;;16.00;99.90;;;;;;5053986;28;19920;-69
2022/06/06 02:23:43;;;;;;;;;;;15.90;99.90;;;;;;5052876;28;19909;-70
2022/06/06 02:26:09;;;;;;;;;;;15.90;99.90;;;;;;5053139;28;20345;-68
2022/06/06 02:28:36;;;;;;;;;;;15.90;99.90;;;;;;5052907;28;19919;-69
2022/06/06 02:31:02;;;;;;;;;;;15.80;99.90;;;;;;5054908;28;19992;-68
2022/06/06 02:33:28;;;;;;;;;;;15.80;99.90;;;;;;5049888;28;20341;-69
2022/06/06 02:35:54;;;;;;;;;;;15.80;99.90;;;;;;5052916;28;20321;-69
2022/06/06 02:38:19;;;;;;;;;;;15.80;99.90;;;;;;5053930;28;20552;-69
2022/06/06 02:40:45;;;;;;;;;;;15.80;99.90;;;;;;5052984;28;19912;-68
2022/06/06 02:43:11;;;;;;;;;;;15.80;99.90;;;;;;5054770;28;19996;-68
2022/06/06 02:45:36;;;;;;;;;;;15.80;99.90;;;;;;5052932;28;19913;-68
2022/06/06 02:48:02;;;;;;;;;;;15.70;99.90;;;;;;5053845;28;19916;-69
2022/06/06 02:50:29;;;;;;;;;;;15.70;99.90;;;;;;5053621;28;19916;-68
2022/06/06 02:52:56;;;;;;;;;;;15.70;99.90;;;;;;5052962;28;20005;-68
2022/06/06 02:55:22;;;;;;;;;;;15.70;99.90;;;;;;5053129;28;19921;-68
2022/06/06 02:58:16;;;;;;;;;;;15.70;99.90;;;;;;5046488;28;19920;-68
2022/06/06 03:00:43;;;;;;;;;;;15.70;99.90;;;;;;5040984;28;19925;-69
2022/06/06 03:03:09;;;;;;;;;;;15.70;99.90;;;;;;5052886;28;19908;-68
2022/06/06 03:05:51;;;;;;;;;;;15.60;99.90;;;;;;5036103;28;19937;-69
2022/06/06 03:08:35;;;;;;;;;;;15.60;99.90;;;;;;5052689;28;19912;-68
2022/06/06 03:11:01;;;;;;;;;;;15.60;99.90;;;;;;5052285;28;20031;-68
2022/06/06 03:13:32;;;;;;;;;;;15.50;99.90;;;;;;5052920;28;19996;-67
2022/06/06 03:21:46;;;;;;;;;;;15.50;99.90;;;;;;5052967;28;19919;-68
2022/06/06 03:24:29;;;;;;;;;;;15.50;99.90;;;;;;5052791;28;20427;-68
2022/06/06 03:27:06;;;;;;;;;;;15.40;99.90;;;;;;5053572;28;19920;-68
2022/06/06 03:29:39;;;;;;;;;;;15.40;99.90;;;;;;5052409;28;19920;-68
2022/06/06 03:32:08;;;;;;;;;;;15.40;99.90;;;;;;5052412;28;19971;-69
2022/06/06 03:34:38;;;;;;;;;;;15.30;99.90;;;;;;5052494;28;19920;-68
2022/06/06 03:37:10;;;;;;;;;;;15.30;99.90;;;;;;5052109;28;19974;-69
2022/06/06 03:39:45;;;;;;;;;;;15.20;99.90;;;;;;5052246;28;19912;-69
2022/06/06 03:42:29;;;;;;;;;;;15.20;99.90;;;;;;5054071;28;20363;-69
2022/06/06 03:44:58;;;;;;;;;;;15.10;99.90;;;;;;5033724;28;19908;-68
2022/06/06 03:47:46;;;;;;;;;;;15.10;99.90;;;;;;5056313;28;19917;-69
2022/06/06 03:50:19;;;;;;;;;;;15.00;99.90;;;;;;5042494;28;20379;-69
2022/06/06 03:52:50;;;;;;;;;;;15.00;99.90;;;;;;5055639;28;19958;-69
2022/06/06 03:55:27;;;;;;;;;;;15.00;99.90;;;;;;5052632;28;20004;-68
2022/06/06 03:57:54;;;;;;;;;;;15.00;99.90;;;;;;5058907;28;19925;-68
2022/06/06 04:00:21;;;;;;;;;;;14.90;99.90;;;;;;5054950;28;19936;-67
2022/06/06 04:02:47;;;;;;;;;;;14.90;99.90;;;;;;5055194;28;20153;-69
2022/06/06 04:05:16;;;;;;;;;;;15.00;99.90;;;;;;5055292;28;20020;-68
2022/06/06 04:07:42;;;;;;;;;;;14.90;99.90;;;;;;5054916;28;19919;-69
2022/06/06 04:10:07;;;;;;;;;;;15.00;99.90;;;;;;5054585;28;19917;-69
2022/06/06 04:12:39;;;;;;;;;;;14.90;99.90;;;;;;5052957;28;19983;-70
2022/06/06 04:15:08;;;;;;;;;;;15.00;99.90;;;;;;5053518;28;20022;-68
2022/06/06 04:17:37;;;;;;;;;;;15.00;99.90;;;;;;5053944;28;20016;-68
2022/06/06 04:20:26;;;;;;;;;;;15.00;99.90;;;;;;5056394;28;19962;-68
2022/06/06 04:22:55;;;;;;;;;;;15.00;99.90;;;;;;5042326;28;20306;-68
2022/06/06 04:25:23;;;;;;;;;;;15.00;99.90;;;;;;5053790;28;19943;-67
2022/06/06 04:27:57;;;;;;;;;;;15.10;99.90;;;;;;5053789;28;20399;-69
2022/06/06 04:30:42;;;;;;;;;;;15.10;99.90;;;;;;5053137;28;19913;-68
2022/06/06 04:33:15;;;;;;;;;;;15.10;99.90;;;;;;5038910;28;19915;-66
2022/06/06 04:35:51;;;;;;;;;;;15.10;99.90;;;;;;5052826;28;20298;-67
2022/06/06 04:38:30;;;;;;;;;;;15.20;99.90;;;;;;5053802;28;19913;-67
2022/06/06 04:41:14;;;;;;;;;;;15.20;99.90;;;;;;5051410;28;19913;-69
2022/06/06 04:43:50;;;;;;;;;;;15.20;99.90;;;;;;5054717;28;19912;-68
2022/06/06 04:46:19;;;;;;;;;;;15.20;99.90;;;;;;5047545;28;19913;-68
2022/06/06 04:48:46;;;;;;;;;;;15.30;99.90;;;;;;5053118;28;19912;-68
2022/06/06 04:51:12;;;;;;;;;;;15.30;99.90;;;;;;5056822;28;19920;-69
2022/06/06 04:53:41;;;;;;;;;;;15.30;99.90;;;;;;5053189;28;20003;-69
2022/06/06 04:56:07;;;;;;;;;;;15.30;99.90;;;;;;5054530;28;19927;-69
2022/06/06 04:58:34;;;;;;;;;;;15.30;99.90;;;;;;5051784;28;20286;-69
2022/06/06 05:01:01;;;;;;;;;;;15.40;99.90;;;;;;5053561;28;19944;-69
2022/06/06 05:03:26;;;;;;;;;;;15.30;99.90;;;;;;5052904;28;19913;-69
2022/06/06 05:06:08;;;;;;;;;;;15.40;99.90;;;;;;5057797;28;19913;-70
2022/06/06 05:08:52;;;;;;;;;;;15.40;99.90;;;;;;5051032;28;19938;-69
2022/06/06 05:11:31;;;;;;;;;;;15.40;99.90;;;;;;5053792;28;19916;-70
2022/06/06 05:14:06;;;;;;;;;;;15.40;99.90;;;;;;5036510;28;19927;-69
2022/06/06 05:16:31;;;;;;;;;;;15.30;99.90;;;;;;5052947;28;19920;-69
2022/06/06 05:19:15;;;;;;;;;;;15.30;99.90;;;;;;5053647;28;19913;-70
2022/06/06 05:21:57;;;;;;;;;;;15.30;99.90;;;;;;5053922;28;19913;-72
2022/06/06 05:24:41;;;;;;;;;;;15.20;99.90;;;;;;5053920;28;19913;-71
2022/06/06 05:27:06;;;;;;;;;;;15.30;99.90;;;;;;5050965;28;20383;-71
2022/06/06 05:29:41;;;;;;;;;;;15.20;99.90;;;;;;5054753;28;19962;-71
2022/06/06 05:32:16;;;;;;;;;;;15.20;99.90;;;;;;5051616;28;19978;-71
2022/06/06 05:35:02;;;;;;;;;;;15.20;99.90;;;;;;5046721;28;19990;-71
2022/06/06 05:37:39;;;;;;;;;;;15.30;99.90;;;;;;5049277;28;19916;-70
2022/06/06 05:40:13;;;;;;;;;;;15.30;99.90;;;;;;5049505;28;20414;-70
2022/06/06 05:42:42;;;;;;;;;;;15.30;99.90;;;;;;5053205;28;20300;-69
2022/06/06 05:45:19;;;;;;;;;;;15.40;99.90;;;;;;5057030;28;19944;-69
2022/06/06 05:48:00;;;;;;;;;;;15.40;99.90;;;;;;5056094;28;19992;-69
2022/06/06 05:50:35;;;;;;;;;;;15.50;99.90;;;;;;5055769;28;19923;-69
2022/06/06 05:53:09;;;;;;;;;;;15.60;99.90;;;;;;5052698;28;20629;-69
2022/06/06 05:55:38;;;;;;;;;;;15.60;99.90;;;;;;5049885;28;20492;-68
2022/06/06 05:58:18;;;;;;;;;;;15.70;99.90;;;;;;5054225;28;19913;-68
2022/06/06 06:00:44;;;;;;;;;;;15.70;99.90;;;;;;5052837;28;19921;-68
2022/06/06 06:03:18;;;;;;;;;;;15.80;99.90;;;;;;5051435;28;20348;-69
2022/06/06 06:05:50;;;;;;;;;;;15.80;99.90;;;;;;5055458;28;19916;-69
2022/06/06 06:08:29;;;;;;;;;;;15.90;99.90;;;;;;5056095;28;19956;-69
2022/06/06 06:10:58;;;;;;;;;;;15.90;99.90;;;;;;5047646;28;20458;-68
2022/06/06 06:13:37;;;;;;;;;;;15.90;99.90;;;;;;5049597;28;19978;-70
2022/06/06 06:16:04;;;;;;;;;;;15.90;99.90;;;;;;5050675;28;19967;-71
2022/06/06 06:18:41;;;;;;;;;;;16.00;99.90;;;;;;5056690;28;19932;-72
2022/06/06 06:21:10;;;;;;;;;;;16.10;99.90;;;;;;5031599;28;19913;-68
2022/06/06 06:23:39;;;;;;;;;;;16.10;99.90;;;;;;5058337;28;19913;-69
2022/06/06 06:26:05;;;;;;;;;;;16.10;99.90;;;;;;5055741;28;19916;-66
2022/06/06 06:28:34;;;;;;;;;;;16.10;99.90;;;;;;5051691;28;19965;-68
2022/06/06 06:31:12;;;;;;;;;;;16.20;99.90;;;;;;5054168;28;20403;-72
2022/06/06 06:33:46;;;;;;;;;;;16.20;99.90;;;;;;5052579;28;20299;-70
2022/06/06 06:36:25;;;;;;;;;;;16.30;99.90;;;;;;5056805;28;19912;-70
2022/06/06 06:38:50;;;;;;;;;;;16.30;99.90;;;;;;5053222;28;19955;-69
2022/06/06 06:41:16;;;;;;;;;;;16.30;99.90;;;;;;5052097;28;19956;-71
2022/06/06 06:43:59;;;;;;;;;;;16.30;99.90;;;;;;5053285;28;20317;-70
2022/06/06 06:46:33;;;;;;;;;;;16.40;99.90;;;;;;5050395;28;19935;-71
2022/06/06 06:49:07;;;;;;;;;;;16.40;99.90;;;;;;5052253;28;19917;-69
2022/06/06 06:51:39;;;;;;;;;;;16.50;99.90;;;;;;5052155;28;19920;-68
2022/06/06 06:54:20;;;;;;;;;;;16.50;99.90;;;;;;5035052;28;19921;-68
2022/06/06 06:56:45;;;;;;;;;;;16.60;99.90;;;;;;5053543;28;19988;-69
2022/06/06 06:59:17;;;;;;;;;;;16.70;99.90;;;;;;5052334;28;20020;-69
2022/06/06 07:10:37;;;;;;;;;;;16.80;99.90;;;;;;4984633;28;19975;-69
2022/06/06 07:13:12;;;;;;;;;;;16.80;99.90;;;;;;4988750;28;19956;-69
2022/06/06 07:15:43;;;;;;;;;;;16.80;99.90;;;;;;4973724;28;19926;-67
2022/06/06 07:18:10;;;;;;;;;;;16.90;99.90;;;;;;4989453;28;19949;-68
2022/06/06 07:20:38;;;;;;;;;;;16.90;99.90;;;;;;4990757;28;19917;-68
2022/06/06 07:23:06;;;;;;;;;;;17.00;99.90;;;;;;4989288;28;19944;-69
2022/06/06 07:25:34;;;;;;;;;;;17.00;99.90;;;;;;4989347;28;20578;-69
2022/06/06 07:28:00;;;;;;;;;;;17.00;99.90;;;;;;4988792;28;19918;-68
2022/06/06 07:30:28;;;;;;;;;;;17.10;99.90;;;;;;4989802;28;19921;-69
2022/06/06 07:33:13;;;;;;;;;;;17.10;99.90;;;;;;4990281;28;19921;-69
2022/06/06 07:35:39;;;;;;;;;;;17.10;99.90;;;;;;4990539;28;19929;-69
2022/06/06 07:38:27;;;;;;;;;;;17.10;99.90;;;;;;4989451;28;20009;-68
2022/06/06 07:40:53;;;;;;;;;;;17.10;99.90;;;;;;4970699;28;20017;-68
2022/06/06 07:43:37;;;;;;;;;;;17.10;99.90;;;;;;4991027;28;20387;-67
2022/06/06 07:46:18;;;;;;;;;;;17.20;99.90;;;;;;5050454;28;20007;-68
2022/06/06 07:48:48;;;;;;;;;;;17.20;99.90;;;;;;5047544;28;19913;-68
2022/06/06 07:51:26;;;;;;;;;;;17.20;99.90;;;;;;5050756;28;20059;-67
2022/06/06 07:53:51;;;;;;;;;;;17.30;99.90;;;;;;5050854;28;19924;-67
2022/06/06 07:56:21;;;;;;;;;;;17.30;99.90;;;;;;5050931;28;19920;-68
2022/06/06 07:58:50;;;;;;;;;;;17.40;99.90;;;;;;5050834;28;19913;-68
2022/06/06 08:01:22;;;;;;;;;;;17.50;99.90;;;;;;5049580;28;20276;-69
2022/06/06 08:03:55;;;;;;;;;;;17.60;99.90;;;;;;5050178;28;19960;-71
2022/06/06 08:06:26;;;;;;;;;;;17.70;99.90;;;;;;5050178;28;20337;-69
2022/06/06 08:09:01;;;;;;;;;;;17.80;99.90;;;;;;5033830;28;19913;-64
2022/06/06 08:11:45;;;;;;;;;;;17.90;99.90;;;;;;5050847;28;19920;-65
2022/06/06 08:14:20;;;;;;;;;;;17.90;99.90;;;;;;5050307;28;20020;-69
2022/06/06 08:16:54;;;;;;;;;;;18.00;99.90;;;;;;5046524;28;19917;-67
2022/06/06 08:19:38;;;;;;;;;;;18.00;99.90;;;;;;5049889;28;19916;-61
2022/06/06 08:22:05;;;;;;;;;;;18.10;99.90;;;;;;5049985;28;19967;-69
2022/06/06 08:24:33;;;;;;;;;;;18.10;99.90;;;;;;5050197;28;19913;-70
2022/06/06 08:27:00;;;;;;;;;;;18.10;99.90;;;;;;5051305;28;19913;-69
2022/06/06 08:29:25;;;;;;;;;;;18.10;99.90;;;;;;5051273;28;19912;-69
2022/06/06 08:31:51;;;;;;;;;;;18.10;99.90;;;;;;5051414;28;20424;-69
2022/06/06 08:34:17;;;;;;;;;;;18.20;99.90;;;;;;5048694;28;20378;-69
2022/06/06 08:36:57;;;;;;;;;;;18.20;99.90;;;;;;5049819;28;19995;-69
2022/06/06 08:39:31;;;;;;;;;;;18.20;99.90;;;;;;5049934;28;20011;-69
2022/06/06 08:42:08;;;;;;;;;;;18.20;99.90;;;;;;5053613;28;19913;-70
2022/06/06 08:44:40;;;;;;;;;;;18.20;99.90;;;;;;5049942;28;19936;-69
2022/06/06 08:47:05;;;;;;;;;;;18.20;99.90;;;;;;5050613;28;19969;-70
2022/06/06 08:52:52;;;;;;;;;;;18.20;99.90;;;;;;5050748;28;19920;-71
2022/06/06 08:55:24;;;;;;;;;;;18.20;99.90;;;;;;5050984;28;20039;-70
2022/06/06 08:58:03;;;;;;;;;;;18.30;99.90;;;;;;5051743;28;19920;-69
2022/06/06 09:00:32;;;;;;;;;;;18.30;99.90;;;;;;5049003;28;19921;-67
2022/06/06 09:03:17;;;;;;;;;;;18.40;99.90;;;;;;5051027;28;19996;-70
2022/06/06 09:05:53;;;;;;;;;;;18.40;99.90;;;;;;5051448;28;19917;-70
2022/06/06 09:08:18;;;;;;;;;;;18.50;99.90;;;;;;5049924;28;20390;-69
2022/06/06 09:10:56;;;;;;;;;;;18.50;99.90;;;;;;5050793;28;19913;-69
2022/06/06 09:13:45;;;;;;;;;;;18.50;99.90;;;;;;5049450;28;19917;-71
2022/06/06 09:16:10;;;;;;;;;;;18.50;99.90;;;;;;5048941;28;19939;-72
2022/06/06 09:19:02;;;;;;;;;;;18.50;99.90;;;;;;5032862;28;19920;-72
2022/06/06 09:21:30;;;;;;;;;;;18.50;99.90;;;;;;4987435;28;20060;-68
2022/06/06 09:24:14;;;;;;;;;;;18.50;99.90;;;;;;4988473;28;20398;-71
2022/06/06 09:26:57;;;;;;;;;;;18.60;99.90;;;;;;4990069;28;19925;-69
2022/06/06 09:29:35;;;;;;;;;;;18.60;99.90;;;;;;4988076;28;20021;-70
2022/06/06 09:32:01;;;;;;;;;;;18.70;99.90;;;;;;4989609;28;19914;-72
2022/06/06 09:34:45;;;;;;;;;;;18.80;99.90;;;;;;4988041;28;20335;-70
2022/06/06 09:37:25;;;;;;;;;;;18.90;99.90;;;;;;4988553;28;20017;-69
2022/06/06 09:39:56;;;;;;;;;;;18.90;99.90;;;;;;4988037;28;20136;-69
2022/06/06 09:42:41;;;;;;;;;;;19.00;99.90;;;;;;4971615;28;20367;-70
2022/06/06 09:45:19;;;;;;;;;;;19.00;99.90;;;;;;4986928;28;19947;-69
2022/06/06 09:47:57;;;;;;;;;;;18.90;99.90;;;;;;4988552;28;19913;-68
2022/06/06 09:50:34;;;;;;;;;;;18.90;99.90;;;;;;4987729;28;19917;-68
2022/06/06 09:53:18;;;;;;;;;;;18.90;99.90;;;;;;4987332;28;19914;-69
2022/06/06 09:59:08;;;;;;;;;;;19.00;99.90;;;;;;5032667;28;19920;-68
2022/06/06 10:01:39;;;;;;;;;;;19.00;99.90;;;;;;5046297;28;20441;-68
2022/06/06 10:04:23;;;;;;;;;;;19.00;99.90;;;;;;5049005;28;19921;-68
2022/06/06 10:06:49;;;;;;;;;;;19.00;99.90;;;;;;5046464;28;20379;-69
2022/06/06 10:09:33;;;;;;;;;;;19.00;99.90;;;;;;5050168;28;19925;-67
2022/06/06 10:12:17;;;;;;;;;;;18.90;99.90;;;;;;5052073;28;19971;-70
2022/06/06 10:15:01;;;;;;;;;;;18.90;99.90;;;;;;5047701;28;20331;-68
2022/06/06 10:17:54;;;;;;;;;;;18.90;99.80;;;;;;5048900;28;19913;-68
2022/06/06 10:20:35;;;;;;;;;;;19.00;99.90;;;;;;5047995;28;19912;-70
2022/06/06 10:23:07;;;;;;;;;;;19.10;99.90;;;;;;5048063;28;19919;-66
2022/06/06 10:25:37;;;;;;;;;;;19.20;99.90;;;;;;5048073;28;20494;-66
2022/06/06 10:28:27;;;;;;;;;;;19.20;99.90;;;;;;5047812;28;19913;-67
2022/06/06 10:31:11;;;;;;;;;;;19.30;99.90;;;;;;5039753;28;19913;-66
2022/06/06 10:33:40;;;;;;;;;;;19.30;99.60;;;;;;5047966;28;20046;-64
2022/06/06 10:36:05;;;;;;;;;;;19.30;99.00;;;;;;5047889;28;19935;-66
2022/06/06 10:38:49;;;;;;;;;;;19.30;99.10;;;;;;5048862;28;19917;-67
2022/06/06 10:41:14;;;;;;;;;;;19.30;99.20;;;;;;5047541;28;20400;-66
2022/06/06 10:44:16;;;;;;;;;;;19.30;99.00;;;;;;5048252;28;20403;-64
2022/06/06 10:46:45;;;;;;;;;;;19.30;99.20;;;;;;4965057;28;19926;-64
2022/06/06 10:49:33;;;;;;;;;;;19.30;99.10;;;;;;4964684;28;19950;-64
2022/06/06 10:52:18;;;;;;;;;;;19.30;97.50;;;;;;4962970;28;19981;-64
2022/06/06 10:55:02;;;;;;;;;;;19.20;97.80;;;;;;4963243;28;20384;-64
2022/06/06 10:57:53;;;;;;;;;;;19.10;98.10;;;;;;4963456;28;19922;-65
2022/06/06 11:00:50;;;;;;;;;;;19.10;98.20;;;;;;4938263;28;20346;-64
2022/06/06 11:03:35;;;;;;;;;;;19.20;98.60;;;;;;4944178;29;20408;-65
2022/06/06 11:06:14;;;;;;;;;;;19.30;98.70;;;;;;4946646;28;19972;-66
2022/06/06 11:08:58;;;;;;;;;;;19.40;98.30;;;;;;4947162;28;19925;-64
2022/06/06 11:11:42;;;;;;;;;;;19.50;97.40;;;;;;4945531;28;19919;-66
2022/06/06 11:14:23;;;;;;;;;;;19.40;97.60;;;;;;4948591;28;20308;-65
2022/06/06 11:16:57;;;;;;;;;;;19.50;97.30;;;;;;4942907;28;19942;-66
2022/06/06 11:19:41;;;;;;;;;;;19.50;98.20;;;;;;4948085;28;19918;-66
2022/06/06 11:22:06;;;;;;;;;;;19.60;97.50;;;;;;4932103;29;19922;-67
2022/06/06 11:24:34;;;;;;;;;;;19.60;96.70;;;;;;4932720;29;19922;-65
2022/06/06 11:27:10;;;;;;;;;;;19.60;97.40;;;;;;4933238;29;20267;-67
2022/06/06 11:29:42;;;;;;;;;;;19.60;97.40;;;;;;4934080;29;20278;-65
2022/06/06 11:32:20;;;;;;;;;;;19.70;97.00;;;;;;4932921;29;20381;-65
2022/06/06 11:34:54;;;;;;;;;;;19.70;96.40;;;;;;4934755;29;19938;-67
2022/06/06 11:37:42;;;;;;;;;;;19.80;97.50;;;;;;4966385;28;19921;-66
2022/06/06 11:40:28;;;;;;;;;;;19.90;97.20;;;;;;5052103;28;19924;-66
2022/06/06 11:42:53;;;;;;;;;;;20.10;96.50;;;;;;5031497;28;20521;-66
2022/06/06 11:45:29;;;;;;;;;;;20.20;96.40;;;;;;5051584;28;19924;-67
2022/06/06 11:47:54;;;;;;;;;;;20.40;96.60;;;;;;5053128;28;19924;-67
2022/06/06 11:50:20;;;;;;;;;;;20.40;96.70;;;;;;5052103;28;19917;-66
2022/06/06 11:53:00;;;;;;;;;;;20.50;96.30;;;;;;5052317;28;19912;-65
2022/06/06 11:55:26;;;;;;;;;;;20.70;95.40;;;;;;5052044;28;19920;-66
2022/06/06 11:58:10;;;;;;;;;;;20.80;96.20;;;;;;5053117;28;20385;-67
2022/06/06 12:00:45;;;;;;;;;;;20.80;95.60;;;;;;5051234;28;19929;-64
2022/06/06 12:03:10;;;;;;;;;;;20.90;95.40;;;;;;5051758;28;19989;-63
2022/06/06 12:05:36;;;;;;;;;;;21.00;94.30;;;;;;5052605;28;20451;-63
2022/06/06 12:08:22;;;;;;;;;;;21.10;94.50;;;;;;5050963;28;19912;-62
2022/06/06 12:11:06;;;;;;;;;;;21.10;94.40;;;;;;5048361;28;19913;-63
2022/06/06 12:13:52;;;;;;;;;;;21.10;94.60;;;;;;5050170;28;19948;-62
2022/06/06 12:16:30;;;;;;;;;;;21.20;94.00;;;;;;5051188;28;20015;-63
2022/06/06 12:18:59;;;;;;;;;;;21.20;92.50;;;;;;5051544;28;20329;-63
2022/06/06 12:21:44;;;;;;;;;;;21.20;93.20;;;;;;5051512;28;19917;-62
2022/06/06 12:24:12;;;;;;;;;;;21.20;92.50;;;;;;5048786;28;19928;-59
2022/06/06 12:27:04;;;;;;;;;;;21.30;93.20;;;;;;5051566;28;19924;-58
2022/06/06 12:29:59;;;;;;;;;;;21.30;92.10;;;;;;5051151;28;19913;-60
2022/06/06 12:32:27;;;;;;;;;;;21.40;93.10;;;;;;4960443;28;20163;-59
2022/06/06 12:34:57;;;;;;;;;;;21.40;92.80;;;;;;4962384;28;20451;-60
2022/06/06 12:37:25;;;;;;;;;;;21.40;91.80;;;;;;4963680;28;19925;-60
2022/06/06 12:39:57;;;;;;;;;;;21.40;91.90;;;;;;4963721;28;20004;-61
2022/06/06 12:42:39;;;;;;;;;;;21.30;90.90;;;;;;4948226;28;19922;-62
2022/06/06 12:45:23;;;;;;;;;;;21.30;90.40;;;;;;4961954;28;19946;-60
2022/06/06 12:47:49;;;;;;;;;;;21.10;90.60;;;;;;4964061;28;19914;-61
2022/06/06 12:50:20;;;;;;;;;;;21.10;90.90;;;;;;4962255;28;19914;-59
2022/06/06 12:53:05;;;;;;;;;;;21.00;90.20;;;;;;4965870;28;19922;-60
2022/06/06 12:55:40;;;;;;;;;;;20.90;90.70;;;;;;4966323;28;20373;-60
2022/06/06 12:58:14;;;;;;;;;;;20.90;91.20;;;;;;4961016;28;19924;-60
2022/06/06 13:03:31;;;;;;;;;;;20.90;91.00;;;;;;4963782;28;19922;-51
2022/06/06 13:06:06;;;;;;;;;;;20.90;88.10;;;;;;4966244;28;19913;-58
2022/06/06 13:08:47;;;;;;;;;;;20.80;88.80;;;;;;4994454;28;19917;-60
2022/06/06 13:11:30;;;;;;;;;;;20.70;89.60;;;;;;5024403;28;19919;-60
2022/06/06 13:14:01;;;;;;;;;;;20.70;89.80;;;;;;5047734;28;20051;-60
2022/06/06 13:16:44;;;;;;;;;;;20.80;90.20;;;;;;5049123;28;19923;-60
2022/06/06 13:19:10;;;;;;;;;;;20.80;90.60;;;;;;5049609;28;19917;-60
2022/06/06 13:21:44;;;;;;;;;;;20.80;89.00;;;;;;5050442;28;20051;-59
2022/06/06 13:24:09;;;;;;;;;;;20.80;89.40;;;;;;5050127;28;19923;-61
2022/06/06 13:26:48;;;;;;;;;;;20.80;90.10;;;;;;5049623;28;19912;-61
2022/06/06 13:29:28;;;;;;;;;;;20.90;90.10;;;;;;5048245;28;19921;-62
2022/06/06 13:31:57;;;;;;;;;;;21.00;89.70;;;;;;5046205;28;19913;-61
2022/06/06 13:34:52;;;;;;;;;;;21.10;89.60;;;;;;5047474;28;19982;-61
2022/06/06 13:37:23;;;;;;;;;;;21.00;88.60;;;;;;4986559;28;20343;-61
2022/06/06 13:40:08;;;;;;;;;;;21.10;88.30;;;;;;4985216;28;19914;-61
2022/06/06 13:42:59;;;;;;;;;;;21.10;89.70;;;;;;4987099;28;19980;-60
2022/06/06 13:45:30;;;;;;;;;;;21.20;89.50;;;;;;4988795;28;20041;-59
2022/06/06 13:47:55;;;;;;;;;;;21.30;89.60;;;;;;4990673;28;21274;-60
2022/06/06 13:50:37;;;;;;;;;;;21.40;87.10;;;;;;4987216;28;19921;-60
2022/06/06 13:53:16;;;;;;;;;;;21.40;88.70;;;;;;4985873;28;19921;-60
2022/06/06 13:55:42;;;;;;;;;;;21.40;87.80;;;;;;4989067;28;20020;-60
2022/06/06 13:58:23;;;;;;;;;;;21.50;88.90;;;;;;4988120;28;20028;-60
2022/06/06 14:00:48;;;;;;;;;;;21.60;89.00;;;;;;4983535;28;19949;-60
2022/06/06 14:03:29;;;;;;;;;;;21.70;87.90;;;;;;4988227;28;19914;-62
2022/06/06 14:06:03;;;;;;;;;;;21.70;88.20;;;;;;4990337;28;20005;-60
2022/06/06 14:08:51;;;;;;;;;;;21.70;83.50;;;;;;4988705;28;20356;-59
2022/06/06 14:11:37;;;;;;;;;;;21.80;86.00;;;;;;4980107;28;19956;-59
2022/06/06 14:14:03;;;;;;;;;;;21.70;84.90;;;;;;5025459;28;19912;-58
2022/06/06 14:16:41;;;;;;;;;;;21.80;84.80;;;;;;5048484;28;19921;-57
2022/06/06 14:19:16;;;;;;;;;;;21.80;85.10;;;;;;5049120;28;20283;-56
2022/06/06 14:21:50;;;;;;;;;;;21.90;84.80;;;;;;5050662;28;19978;-58
2022/06/06 14:24:17;;;;;;;;;;;22.00;84.80;;;;;;5032148;28;19940;-59
2022/06/06 14:26:48;;;;;;;;;;;22.10;85.10;;;;;;5050660;28;19917;-58
2022/06/06 14:29:22;;;;;;;;;;;22.10;84.60;;;;;;5047923;28;19912;-57
2022/06/06 14:32:01;;;;;;;;;;;22.10;84.10;;;;;;5049698;28;19920;-59
2022/06/06 14:34:31;;;;;;;;;;;22.20;85.50;;;;;;5049115;28;19970;-58
2022/06/06 14:37:04;;;;;;;;;;;22.30;85.00;;;;;;5051405;28;20037;-57
2022/06/06 14:39:29;;;;;;;;;;;22.30;84.10;;;;;;5052927;28;19924;-57
2022/06/06 14:41:55;;;;;;;;;;;22.40;85.20;;;;;;5053689;28;20045;-57
2022/06/06 14:44:32;;;;;;;;;;;22.40;85.30;;;;;;5035576;28;19919;-58
2022/06/06 14:47:12;;;;;;;;;;;22.40;83.70;;;;;;5051608;28;19958;-57
2022/06/06 14:49:40;;;;;;;;;;;22.50;85.10;;;;;;5052281;28;19938;-58
2022/06/06 14:52:24;;;;;;;;;;;22.60;85.40;;;;;;5053012;28;20004;-58
2022/06/06 14:54:52;;;;;;;;;;;22.60;83.50;;;;;;5048648;28;20083;-58
2022/06/06 14:57:18;;;;;;;;;;;22.60;81.10;;;;;;5050882;28;20398;-58
2022/06/06 14:59:46;;;;;;;;;;;22.60;82.30;;;;;;5052799;28;19917;-58
2022/06/06 15:02:12;;;;;;;;;;;22.60;82.40;;;;;;5051733;28;20402;-58
2022/06/06 15:04:37;;;;;;;;;;;22.60;83.50;;;;;;5051864;28;19951;-57
2022/06/06 15:07:03;;;;;;;;;;;22.70;83.20;;;;;;5051448;28;19999;-56
2022/06/06 15:09:31;;;;;;;;;;;22.70;83.10;;;;;;5052026;28;20361;-58
2022/06/06 15:11:57;;;;;;;;;;;22.60;82.30;;;;;;5052588;28;19917;-58
2022/06/06 15:14:23;;;;;;;;;;;22.60;82.20;;;;;;5051295;28;20375;-57
2022/06/06 15:16:48;;;;;;;;;;;22.60;80.80;;;;;;5051151;28;19992;-58
2022/06/06 15:19:33;;;;;;;;;;;22.60;81.70;;;;;;5051976;28;19920;-58
2022/06/06 15:22:00;;;;;;;;;;;22.60;81.40;;;;;;5049180;28;19912;-57